Time;durP1;ratioP1;P1;durP2;ratioP2;P2;SDS_P1;SDS_P2;PMS_P1;PMS_P2;Temp;Humidity;BMP_temperature;BMP_pressure;BME280_temperature;BME280_humidity;BME280_pressure;Samples;Min_cycle;Max_cycle;Signal;HPM_P1;HPM_P2
2021/12/24 00:01:51;;;;;;;;;;;5.70;99.90;;;;;;4962446;28;20082;-88
2021/12/24 00:04:50;;;;;;;;;;;5.70;99.90;;;;;;4961742;28;19933;-87
2021/12/24 00:07:31;;;;;;;;;;;5.80;99.90;;;;;;4959920;28;20017;-88
2021/12/24 00:10:17;;;;;;;;;;;5.80;99.90;;;;;;4946791;28;19926;-87
2021/12/24 00:16:15;;;;;;;;;;;5.80;99.90;;;;;;4955223;28;20002;-89
2021/12/24 00:19:20;;;;;;;;;;;5.90;99.90;;;;;;4976522;28;19933;-88
2021/12/24 00:36:35;;;;;;;;;;;6.00;99.90;;;;;;4961411;28;19926;-88
2021/12/24 00:39:20;;;;;;;;;;;6.10;99.90;;;;;;4977765;28;19976;-87
2021/12/24 00:42:14;;;;;;;;;;;6.10;99.90;;;;;;4944410;28;19931;-88
2021/12/24 00:44:45;;;;;;;;;;;6.20;99.90;;;;;;4945498;28;20385;-87
2021/12/24 00:47:27;;;;;;;;;;;6.20;99.90;;;;;;4943489;28;20433;-87
2021/12/24 00:50:05;;;;;;;;;;;;;;;;;;;;;
2021/12/24 00:56:09;;;;;;;;;;;6.30;99.90;;;;;;4959895;28;19930;-87
2021/12/24 00:59:04;;;;;;;;;;;6.30;99.90;;;;;;4943657;28;20106;-87
2021/12/24 01:02:04;;;;;;;;;;;6.30;99.90;;;;;;4975272;28;19929;-88
2021/12/24 01:04:58;;;;;;;;;;;6.30;99.90;;;;;;4982453;28;19942;-87
2021/12/24 01:07:36;;;;;;;;;;;6.40;99.90;;;;;;4957647;28;19928;-87
2021/12/24 01:10:09;;;;;;;;;;;6.40;99.90;;;;;;4961396;28;19949;-89
2021/12/24 01:12:46;;;;;;;;;;;6.40;99.90;;;;;;4943636;28;19949;-87
2021/12/24 01:15:40;;;;;;;;;;;;;;;;;;;;;
2021/12/24 01:27:09;;;;;;;;;;;6.50;99.90;;;;;;4931551;28;19938;-87
2021/12/24 01:38:33;;;;;;;;;;;6.60;99.90;;;;;;4961211;28;19926;-87
2021/12/24 01:42:39;;;;;;;;;;;6.70;99.90;;;;;;4975080;28;20042;-89
2021/12/24 01:44:26;;;;;;;;;;;6.70;99.90;;;;;;4959819;28;19927;-87
2021/12/24 01:47:28;;;;;;;;;;;;;;;;;;;;;
2021/12/24 01:50:33;;;;;;;;;;;;;;;;;;;;;
2021/12/24 01:53:10;;;;;;;;;;;;;;;;;;;;;
2021/12/24 01:58:37;;;;;;;;;;;6.70;99.90;;;;;;4950408;28;19926;-87
2021/12/24 02:01:19;;;;;;;;;;;6.70;99.90;;;;;;4958468;28;19930;-89
2021/12/24 02:04:05;;;;;;;;;;;6.80;99.90;;;;;;4942558;28;20401;-88
2021/12/24 02:06:43;;;;;;;;;;;;;;;;;;;;;
2021/12/24 02:09:36;;;;;;;;;;;;;;;;;;;;;
2021/12/24 02:29:39;;;;;;;;;;;6.90;99.90;;;;;;4960121;28;19930;-87
2021/12/24 02:32:20;;;;;;;;;;;6.90;99.90;;;;;;4959186;28;19933;-88
2021/12/24 02:35:05;;;;;;;;;;;6.90;99.90;;;;;;4958339;28;19933;-88
2021/12/24 02:37:56;;;;;;;;;;;7.00;99.90;;;;;;4942745;28;19926;-87
2021/12/24 02:40:42;;;;;;;;;;;7.00;99.90;;;;;;4942715;28;19933;-87
2021/12/24 02:46:07;;;;;;;;;;;7.00;99.90;;;;;;4960045;28;20016;-87
2021/12/24 02:54:35;;;;;;;;;;;7.10;99.90;;;;;;4959709;28;20383;-88
2021/12/24 02:57:10;;;;;;;;;;;7.10;99.90;;;;;;4957805;28;19949;-88
2021/12/24 02:59:58;;;;;;;;;;;7.00;99.90;;;;;;4972185;28;19926;-87
2021/12/24 03:02:44;;;;;;;;;;;;;;;;;;;;;
2021/12/24 03:08:23;;;;;;;;;;;7.20;99.90;;;;;;4953165;28;19926;-89
2021/12/24 03:11:37;;;;;;;;;;;;;;;;;;;;;
2021/12/24 03:17:52;;;;;;;;;;;7.20;99.90;;;;;;4969958;28;19949;-88
2021/12/24 03:20:31;;;;;;;;;;;;;;;;;;;;;
2021/12/24 03:25:44;;;;;;;;;;;7.40;99.90;;;;;;4957256;28;19926;-89
2021/12/24 03:28:18;;;;;;;;;;;7.40;99.90;;;;;;4941981;28;19926;-87
2021/12/24 03:31:00;;;;;;;;;;;7.40;99.90;;;;;;4958046;28;20020;-87
2021/12/24 03:34:05;;;;;;;;;;;7.50;99.90;;;;;;4943232;28;19926;-87
2021/12/24 03:36:41;;;;;;;;;;;7.50;99.90;;;;;;4971874;28;19934;-88
2021/12/24 03:39:44;;;;;;;;;;;7.60;99.90;;;;;;4941670;28;19926;-89
2021/12/24 03:42:27;;;;;;;;;;;7.60;99.90;;;;;;4972743;28;19932;-88
2021/12/24 03:45:19;;;;;;;;;;;;;;;;;;;;;
2021/12/24 03:48:15;;;;;;;;;;;7.60;99.90;;;;;;4958511;28;20414;-88
2021/12/24 03:56:50;;;;;;;;;;;7.70;99.90;;;;;;4960230;28;20306;-88
2021/12/24 03:59:39;;;;;;;;;;;7.70;99.90;;;;;;4957395;28;20334;-88
2021/12/24 04:02:25;;;;;;;;;;;7.80;99.90;;;;;;4957009;28;20301;-88
2021/12/24 04:05:03;;;;;;;;;;;;;;;;;;;;;
2021/12/24 04:07:52;;;;;;;;;;;7.90;99.90;;;;;;4958727;28;19973;-88
2021/12/24 04:14:00;;;;;;;;;;;;;;;;;;;;;
2021/12/24 04:16:47;;;;;;;;;;;7.80;99.90;;;;;;4975801;28;19926;-87
2021/12/24 04:25:20;;;;;;;;;;;8.00;99.90;;;;;;4962328;28;19933;-89
2021/12/24 04:31:36;;;;;;;;;;;;;;;;;;;;;
2021/12/24 04:34:13;;;;;;;;;;;8.00;99.90;;;;;;4990167;28;19976;-87
2021/12/24 04:51:32;;;;;;;;;;;8.00;99.90;;;;;;4962626;28;20399;-90
2021/12/24 05:03:05;;;;;;;;;;;8.10;99.90;;;;;;4962085;28;19926;-87
2021/12/24 05:11:26;;;;;;;;;;;8.10;99.90;;;;;;4914463;28;19933;-88
2021/12/24 05:17:17;;;;;;;;;;;8.20;99.90;;;;;;4964292;28;19953;-89
2021/12/24 05:22:35;;;;;;;;;;;8.10;99.90;;;;;;4974905;28;19926;-87
2021/12/24 05:25:01;;;;;;;;;;;8.10;99.90;;;;;;4943051;28;20113;-89
2021/12/24 05:27:39;;;;;;;;;;;8.10;99.90;;;;;;4942863;28;19933;-87
2021/12/24 05:30:22;;;;;;;;;;;8.10;99.90;;;;;;4944274;28;19926;-89
2021/12/24 05:33:00;;;;;;;;;;;8.10;99.90;;;;;;4943973;28;20278;-88
2021/12/24 05:35:36;;;;;;;;;;;8.10;99.90;;;;;;4945376;28;19926;-87
2021/12/24 05:38:25;;;;;;;;;;;8.10;99.90;;;;;;4959732;28;20021;-90
2021/12/24 05:40:53;;;;;;;;;;;8.10;99.90;;;;;;4959082;28;19930;-90
2021/12/24 05:43:21;;;;;;;;;;;8.10;99.90;;;;;;4958677;28;19926;-88
2021/12/24 05:45:54;;;;;;;;;;;8.10;99.90;;;;;;4959013;28;19926;-88
2021/12/24 05:48:51;;;;;;;;;;;8.10;99.90;;;;;;4942981;28;19926;-88
2021/12/24 05:51:38;;;;;;;;;;;;;;;;;;;;;
2021/12/24 05:54:38;;;;;;;;;;;;;;;;;;;;;
2021/12/24 05:57:01;;;;;;;;;;;8.00;99.90;;;;;;4958224;28;19929;-94
2021/12/24 05:59:29;;;;;;;;;;;8.10;99.90;;;;;;4942016;28;19930;-86
2021/12/24 06:01:55;;;;;;;;;;;8.10;99.90;;;;;;4942727;28;20000;-88
2021/12/24 06:04:25;;;;;;;;;;;8.00;99.90;;;;;;4973673;28;19973;-87
2021/12/24 06:06:56;;;;;;;;;;;8.10;99.90;;;;;;4974509;28;19949;-88
2021/12/24 06:09:32;;;;;;;;;;;8.10;99.90;;;;;;4958669;28;19949;-89
2021/12/24 06:12:05;;;;;;;;;;;8.10;99.90;;;;;;4958905;28;20012;-88
2021/12/24 06:14:40;;;;;;;;;;;8.10;99.90;;;;;;4942944;28;19980;-89
2021/12/24 06:17:13;;;;;;;;;;;8.10;99.90;;;;;;4943446;28;19926;-88
2021/12/24 06:19:55;;;;;;;;;;;8.00;99.90;;;;;;4959755;28;20347;-87
2021/12/24 06:22:51;;;;;;;;;;;;;;;;;;;;;
2021/12/24 06:25:22;;;;;;;;;;;8.00;99.90;;;;;;4973444;28;19926;-87
2021/12/24 06:27:53;;;;;;;;;;;8.00;99.90;;;;;;4958960;28;19965;-88
2021/12/24 06:30:27;;;;;;;;;;;8.00;99.90;;;;;;4941895;28;20291;-87
2021/12/24 06:33:00;;;;;;;;;;;8.00;99.90;;;;;;4957597;28;20264;-89
2021/12/24 06:35:36;;;;;;;;;;;8.00;99.90;;;;;;4973458;28;20020;-88
2021/12/24 06:38:11;;;;;;;;;;;8.00;99.90;;;;;;4957703;28;19981;-88
2021/12/24 06:41:04;;;;;;;;;;;8.00;99.90;;;;;;4943546;28;19977;-88
2021/12/24 06:43:37;;;;;;;;;;;8.00;99.90;;;;;;4961718;28;20032;-90
2021/12/24 06:46:10;;;;;;;;;;;8.00;99.90;;;;;;4941531;28;20058;-88
2021/12/24 06:48:46;;;;;;;;;;;8.00;99.90;;;;;;4942380;28;19926;-87
2021/12/24 06:51:19;;;;;;;;;;;8.00;99.90;;;;;;4959033;28;19926;-88
2021/12/24 06:53:49;;;;;;;;;;;8.00;99.90;;;;;;4941430;28;19926;-88
2021/12/24 06:56:15;;;;;;;;;;;7.90;99.90;;;;;;4957469;28;20025;-89
2021/12/24 06:58:49;;;;;;;;;;;7.90;99.90;;;;;;4941267;28;19973;-87
2021/12/24 07:01:17;;;;;;;;;;;7.90;99.90;;;;;;4957065;28;20345;-89
2021/12/24 07:04:07;;;;;;;;;;;8.00;99.90;;;;;;4941465;28;19976;-87
2021/12/24 07:06:38;;;;;;;;;;;7.90;99.90;;;;;;4958012;28;19930;-88
2021/12/24 07:09:06;;;;;;;;;;;7.90;99.90;;;;;;4942223;28;20016;-88
2021/12/24 07:11:34;;;;;;;;;;;7.90;99.90;;;;;;4941248;28;19933;-88
2021/12/24 07:14:02;;;;;;;;;;;7.90;99.90;;;;;;4957765;28;19930;-88
2021/12/24 07:16:30;;;;;;;;;;;7.90;99.90;;;;;;4941241;28;19933;-87
2021/12/24 07:19:09;;;;;;;;;;;7.90;99.90;;;;;;4957085;28;19977;-89
2021/12/24 07:21:37;;;;;;;;;;;7.80;99.90;;;;;;4972953;28;19935;-88
2021/12/24 07:26:54;;;;;;;;;;;7.90;99.90;;;;;;4950604;28;20402;-89
2021/12/24 07:29:36;;;;;;;;;;;7.80;99.90;;;;;;4940885;28;19933;-88
2021/12/24 07:32:02;;;;;;;;;;;7.90;99.90;;;;;;4958182;28;20025;-89
2021/12/24 07:34:30;;;;;;;;;;;7.90;99.90;;;;;;4940316;28;19933;-88
2021/12/24 07:37:16;;;;;;;;;;;7.80;99.90;;;;;;4940979;28;19976;-88
2021/12/24 07:39:57;;;;;;;;;;;7.80;99.90;;;;;;4958798;28;19933;-90
2021/12/24 07:42:31;;;;;;;;;;;7.80;99.90;;;;;;4957123;28;19970;-90
2021/12/24 07:45:08;;;;;;;;;;;7.90;99.90;;;;;;4943289;28;19933;-90
2021/12/24 07:53:50;;;;;;;;;;;;;;;;;;;;;
2021/12/24 07:56:16;;;;;;;;;;;7.80;99.90;;;;;;4962117;28;19926;-87
2021/12/24 07:58:44;;;;;;;;;;;7.80;99.90;;;;;;4944258;28;19933;-88
2021/12/24 08:01:30;;;;;;;;;;;7.80;99.90;;;;;;4943844;28;20008;-88
2021/12/24 08:04:03;;;;;;;;;;;7.80;99.90;;;;;;4945955;28;19926;-89
2021/12/24 08:06:39;;;;;;;;;;;;;;;;;;;;;
2021/12/24 08:09:08;;;;;;;;;;;7.80;99.90;;;;;;4961998;28;19926;-88
2021/12/24 08:11:39;;;;;;;;;;;7.80;99.90;;;;;;4945265;28;19926;-88
2021/12/24 08:14:08;;;;;;;;;;;7.80;99.90;;;;;;4960338;28;20387;-89
2021/12/24 08:16:39;;;;;;;;;;;7.80;99.90;;;;;;4960046;28;19933;-89
2021/12/24 08:19:10;;;;;;;;;;;7.80;99.90;;;;;;4944049;28;19989;-88
2021/12/24 08:21:51;;;;;;;;;;;;;;;;;;;;;
2021/12/24 08:24:31;;;;;;;;;;;7.80;99.90;;;;;;4962395;28;19926;-93
2021/12/24 08:27:06;;;;;;;;;;;7.80;99.90;;;;;;4946064;28;19926;-89
2021/12/24 08:29:53;;;;;;;;;;;7.80;99.90;;;;;;4960540;28;19926;-88
2021/12/24 08:32:41;;;;;;;;;;;7.80;99.90;;;;;;4944249;28;19926;-89
2021/12/24 08:35:27;;;;;;;;;;;;;;;;;;;;;
2021/12/24 08:38:10;;;;;;;;;;;7.80;99.90;;;;;;4960904;28;19933;-90
2021/12/24 08:40:41;;;;;;;;;;;7.90;99.90;;;;;;4960144;28;19927;-90
2021/12/24 08:43:17;;;;;;;;;;;7.80;99.90;;;;;;4944022;28;19933;-89
2021/12/24 08:46:07;;;;;;;;;;;7.90;99.90;;;;;;4959732;28;19937;-91
2021/12/24 08:48:53;;;;;;;;;;;7.80;99.90;;;;;;4961076;28;19930;-89
2021/12/24 08:51:28;;;;;;;;;;;;;;;;;;;;;
2021/12/24 08:57:09;;;;;;;;;;;7.80;99.90;;;;;;4961609;28;19934;-90
2021/12/24 09:00:14;;;;;;;;;;;7.80;99.90;;;;;;4961877;28;19966;-90
2021/12/24 09:03:01;;;;;;;;;;;;;;;;;;;;;
2021/12/24 09:06:00;;;;;;;;;;;;;;;;;;;;;
2021/12/24 09:09:06;;;;;;;;;;;7.90;99.90;;;;;;4906886;29;19966;-90
2021/12/24 09:12:16;;;;;;;;;;;7.90;99.90;;;;;;4958269;28;20371;-91
2021/12/24 09:15:11;;;;;;;;;;;7.90;99.90;;;;;;4974497;28;19926;-90
2021/12/24 09:17:47;;;;;;;;;;;7.90;99.90;;;;;;4962112;28;20276;-92
2021/12/24 09:20:26;;;;;;;;;;;7.90;99.90;;;;;;4944331;28;20438;-89
2021/12/24 09:22:54;;;;;;;;;;;7.90;99.90;;;;;;4944073;28;19927;-90
2021/12/24 09:25:22;;;;;;;;;;;7.90;99.90;;;;;;4943633;28;19933;-90
2021/12/24 09:27:55;;;;;;;;;;;7.90;99.90;;;;;;4943154;28;19933;-91
2021/12/24 09:30:54;;;;;;;;;;;;;;;;;;;;;
2021/12/24 09:33:22;;;;;;;;;;;7.90;99.90;;;;;;4975229;28;19926;-88
2021/12/24 09:36:26;;;;;;;;;;;;;;;;;;;;;
2021/12/24 09:39:15;;;;;;;;;;;8.00;99.90;;;;;;4958863;28;19932;-89
2021/12/24 09:41:43;;;;;;;;;;;8.00;99.90;;;;;;4944047;28;19933;-88
2021/12/24 09:44:09;;;;;;;;;;;8.00;99.90;;;;;;4942341;28;20386;-88
2021/12/24 09:46:42;;;;;;;;;;;8.00;99.90;;;;;;4942874;28;19977;-88
2021/12/24 09:49:25;;;;;;;;;;;8.00;99.90;;;;;;4959591;28;19926;-87
2021/12/24 09:52:03;;;;;;;;;;;;;;;;;;;;;
2021/12/24 09:54:57;;;;;;;;;;;;;;;;;;;;;
2021/12/24 09:57:41;;;;;;;;;;;;;;;;;;;;;
2021/12/24 10:00:18;;;;;;;;;;;;;;;;;;;;;
2021/12/24 10:02:49;;;;;;;;;;;8.00;99.90;;;;;;4959550;28;20371;-88
2021/12/24 10:05:46;;;;;;;;;;;8.00;99.90;;;;;;4958836;28;19926;-87
2021/12/24 10:08:17;;;;;;;;;;;8.10;99.90;;;;;;4986054;28;20359;-87
2021/12/24 10:10:46;;;;;;;;;;;8.10;99.90;;;;;;4941699;28;19937;-89
2021/12/24 10:13:46;;;;;;;;;;;8.00;99.90;;;;;;4942172;28;19933;-88
2021/12/24 10:16:17;;;;;;;;;;;8.10;99.90;;;;;;4973386;28;20031;-87
2021/12/24 10:19:31;;;;;;;;;;;;;;;;;;;;;
2021/12/24 10:22:33;;;;;;;;;;;8.20;99.90;;;;;;4972932;28;20390;-89
2021/12/24 10:25:47;;;;;;;;;;;;;;;;;;;;;
2021/12/24 10:28:42;;;;;;;;;;;8.40;99.90;;;;;;4960766;28;19933;-89
2021/12/24 10:34:53;;;;;;;;;;;8.50;99.90;;;;;;4971861;28;19926;-90
2021/12/24 10:37:39;;;;;;;;;;;8.50;99.90;;;;;;4944900;28;19927;-91
2021/12/24 10:40:25;;;;;;;;;;;;;;;;;;;;;
2021/12/24 10:42:59;;;;;;;;;;;8.30;99.90;;;;;;4959444;28;19926;-90
2021/12/24 10:48:28;;;;;;;;;;;7.90;99.90;;;;;;4949907;28;20371;-86
2021/12/24 10:51:19;;;;;;;;;;;7.80;99.90;;;;;;4941021;28;19984;-85
2021/12/24 10:54:08;;;;;;;;;;;7.70;99.90;;;;;;4960010;28;19926;-87
2021/12/24 10:57:02;;;;;;;;;;;7.60;99.90;;;;;;4942415;28;20370;-88
2021/12/24 11:00:04;;;;;;;;;;;7.60;99.90;;;;;;4987361;28;19926;-87
2021/12/24 11:02:46;;;;;;;;;;;;;;;;;;;;;
2021/12/24 11:05:54;;;;;;;;;;;7.30;99.90;;;;;;4958821;28;19926;-88
2021/12/24 11:08:30;;;;;;;;;;;7.20;99.90;;;;;;4960742;28;19981;-90
2021/12/24 11:10:59;;;;;;;;;;;7.20;99.90;;;;;;4940566;28;19980;-88
2021/12/24 11:13:44;;;;;;;;;;;7.10;99.90;;;;;;4957094;28;19926;-89
2021/12/24 11:16:22;;;;;;;;;;;7.10;99.90;;;;;;4943478;28;19933;-88
2021/12/24 11:18:57;;;;;;;;;;;7.00;99.90;;;;;;4942249;28;20365;-88
2021/12/24 11:21:38;;;;;;;;;;;7.00;99.90;;;;;;4942968;28;20270;-88
2021/12/24 11:24:22;;;;;;;;;;;6.90;99.90;;;;;;4958650;28;19926;-88
2021/12/24 11:26:51;;;;;;;;;;;7.00;99.90;;;;;;4942540;28;19963;-89
2021/12/24 11:29:39;;;;;;;;;;;6.90;99.90;;;;;;4941088;28;20386;-89
2021/12/24 11:32:32;;;;;;;;;;;7.00;99.90;;;;;;4973017;28;19981;-90
2021/12/24 11:35:13;;;;;;;;;;;;;;;;;;;;;
2021/12/24 11:37:45;;;;;;;;;;;7.10;99.90;;;;;;4958269;28;19927;-86
2021/12/24 11:40:14;;;;;;;;;;;7.10;99.90;;;;;;4956864;28;20025;-86
2021/12/24 11:42:50;;;;;;;;;;;7.10;99.90;;;;;;4957157;28;19973;-86
2021/12/24 11:45:16;;;;;;;;;;;7.00;99.90;;;;;;4957303;28;19930;-86
2021/12/24 11:47:44;;;;;;;;;;;7.00;99.90;;;;;;4941271;28;19955;-86
2021/12/24 11:50:10;;;;;;;;;;;6.90;99.90;;;;;;4940926;28;19981;-86
2021/12/24 11:52:40;;;;;;;;;;;6.80;99.90;;;;;;4957170;28;20363;-87
2021/12/24 11:55:06;;;;;;;;;;;6.90;99.90;;;;;;4957511;28;19973;-87
2021/12/24 11:57:35;;;;;;;;;;;6.80;99.90;;;;;;4941543;28;20349;-87
2021/12/24 12:00:10;;;;;;;;;;;6.80;99.90;;;;;;4956526;28;19926;-87
2021/12/24 12:03:05;;;;;;;;;;;6.70;99.90;;;;;;4956936;28;19977;-86
2021/12/24 12:05:39;;;;;;;;;;;6.70;99.90;;;;;;4973093;28;20433;-87
2021/12/24 12:08:39;;;;;;;;;;;6.70;99.90;;;;;;4957474;28;20302;-86
2021/12/24 12:11:25;;;;;;;;;;;;;;;;;;;;;
2021/12/24 12:13:54;;;;;;;;;;;6.70;99.90;;;;;;4958214;28;19933;-87
2021/12/24 12:16:24;;;;;;;;;;;6.70;99.90;;;;;;4956169;28;20306;-87
2021/12/24 12:19:03;;;;;;;;;;;6.70;99.90;;;;;;4956551;28;19977;-87
2021/12/24 12:21:42;;;;;;;;;;;6.70;99.90;;;;;;4958464;28;19926;-87
2021/12/24 12:26:58;;;;;;;;;;;6.60;99.90;;;;;;4956765;28;19933;-87
2021/12/24 12:29:43;;;;;;;;;;;6.50;99.90;;;;;;4971346;28;19930;-87
2021/12/24 12:32:12;;;;;;;;;;;6.60;99.90;;;;;;4941974;28;19926;-87
2021/12/24 12:34:43;;;;;;;;;;;6.60;99.90;;;;;;4975932;28;19926;-87
2021/12/24 12:37:17;;;;;;;;;;;6.60;99.90;;;;;;4959269;28;19926;-87
2021/12/24 12:39:44;;;;;;;;;;;6.60;99.90;;;;;;4975511;28;19930;-87
2021/12/24 12:42:10;;;;;;;;;;;6.60;99.90;;;;;;4959091;28;19926;-86
2021/12/24 12:44:37;;;;;;;;;;;6.50;99.90;;;;;;4976096;28;20025;-86
2021/12/24 12:47:12;;;;;;;;;;;6.50;99.90;;;;;;4960196;28;20267;-85
2021/12/24 12:49:38;;;;;;;;;;;6.50;99.90;;;;;;4976143;28;19926;-86
2021/12/24 12:52:06;;;;;;;;;;;6.50;99.90;;;;;;4959826;28;19933;-86
2021/12/24 12:54:38;;;;;;;;;;;6.60;99.90;;;;;;4944162;28;19930;-86
2021/12/24 12:57:14;;;;;;;;;;;6.60;99.90;;;;;;4959380;28;19933;-86
2021/12/24 13:00:04;;;;;;;;;;;6.70;99.90;;;;;;4959436;28;20453;-85
2021/12/24 13:02:48;;;;;;;;;;;6.70;99.90;;;;;;4975301;28;20017;-86
2021/12/24 13:05:14;;;;;;;;;;;6.70;99.90;;;;;;4959099;28;19933;-86
2021/12/24 13:07:47;;;;;;;;;;;6.80;99.90;;;;;;4975626;28;19926;-86
2021/12/24 13:10:16;;;;;;;;;;;6.80;99.90;;;;;;4943762;28;20367;-86
2021/12/24 13:12:53;;;;;;;;;;;6.90;99.90;;;;;;4943565;28;20048;-86
2021/12/24 13:15:24;;;;;;;;;;;6.90;99.90;;;;;;4960353;28;20339;-86
2021/12/24 13:18:07;;;;;;;;;;;7.00;99.90;;;;;;4943410;28;19926;-86
2021/12/24 13:23:37;;;;;;;;;;;7.00;99.90;;;;;;4908311;29;19985;-86
2021/12/24 13:26:24;;;;;;;;;;;7.10;99.90;;;;;;4932389;28;19926;-86
2021/12/24 13:29:23;;;;;;;;;;;7.00;99.90;;;;;;4959535;28;19984;-86
2021/12/24 13:31:57;;;;;;;;;;;7.00;99.90;;;;;;4974907;28;19926;-86
2021/12/24 13:34:24;;;;;;;;;;;7.10;99.90;;;;;;4942781;28;20386;-86
2021/12/24 13:36:49;;;;;;;;;;;7.10;99.90;;;;;;4942956;28;19926;-86
2021/12/24 13:39:22;;;;;;;;;;;7.10;99.90;;;;;;4942321;28;20021;-86
2021/12/24 13:42:00;;;;;;;;;;;;;;;;;;;;;
2021/12/24 13:44:30;;;;;;;;;;;7.20;99.90;;;;;;4959628;28;20322;-86
2021/12/24 13:47:02;;;;;;;;;;;7.20;99.90;;;;;;4942896;28;20272;-86
2021/12/24 13:55:46;;;;;;;;;;;7.20;99.90;;;;;;4918564;29;20372;-86
2021/12/24 13:58:17;;;;;;;;;;;7.10;99.90;;;;;;4946384;28;19926;-86
2021/12/24 14:00:47;;;;;;;;;;;7.20;99.90;;;;;;4942447;28;19933;-86
2021/12/24 14:03:13;;;;;;;;;;;7.10;99.90;;;;;;4942238;28;20329;-86
2021/12/24 14:05:47;;;;;;;;;;;7.10;99.90;;;;;;4958077;28;20016;-86
2021/12/24 14:08:16;;;;;;;;;;;7.10;99.90;;;;;;4942365;28;20374;-86
2021/12/24 14:10:42;;;;;;;;;;;7.10;99.90;;;;;;4958365;28;19926;-86
2021/12/24 14:13:18;;;;;;;;;;;7.10;99.90;;;;;;4958299;28;20021;-86
2021/12/24 14:15:58;;;;;;;;;;;7.00;99.90;;;;;;4959778;28;19926;-86
2021/12/24 14:24:09;;;;;;;;;;;6.90;99.90;;;;;;4990385;28;19926;-86
2021/12/24 14:26:35;;;;;;;;;;;6.90;99.90;;;;;;4973817;28;19926;-86
2021/12/24 14:29:19;;;;;;;;;;;6.80;99.90;;;;;;4942068;28;20034;-86
2021/12/24 14:32:04;;;;;;;;;;;6.80;99.90;;;;;;4944457;28;19926;-86
2021/12/24 14:34:34;;;;;;;;;;;6.80;99.90;;;;;;4957016;28;19969;-86
2021/12/24 14:37:03;;;;;;;;;;;6.80;99.90;;;;;;4958024;28;20441;-86
2021/12/24 14:39:37;;;;;;;;;;;6.90;99.90;;;;;;4957100;28;20417;-86
2021/12/24 14:42:15;;;;;;;;;;;6.80;99.90;;;;;;4942021;28;20362;-87
2021/12/24 14:44:45;;;;;;;;;;;6.80;99.90;;;;;;4957380;28;20147;-86
2021/12/24 14:47:19;;;;;;;;;;;6.80;99.90;;;;;;4958184;28;19926;-87
2021/12/24 14:49:45;;;;;;;;;;;6.80;99.90;;;;;;4957868;28;19993;-86
2021/12/24 14:52:17;;;;;;;;;;;6.80;99.90;;;;;;4957706;28;20382;-86
2021/12/24 14:55:04;;;;;;;;;;;6.80;99.90;;;;;;4956185;28;20398;-86
2021/12/24 14:57:32;;;;;;;;;;;6.70;99.90;;;;;;4956797;28;20383;-86
2021/12/24 15:00:09;;;;;;;;;;;6.80;99.90;;;;;;4941201;28;19925;-86
2021/12/24 15:02:40;;;;;;;;;;;6.70;99.90;;;;;;4973276;28;19926;-86
2021/12/24 15:05:13;;;;;;;;;;;6.70;99.90;;;;;;4941629;28;19926;-87
2021/12/24 15:07:47;;;;;;;;;;;6.60;99.90;;;;;;4958057;28;19926;-86
2021/12/24 15:10:23;;;;;;;;;;;6.70;99.90;;;;;;4937703;28;19930;-88
2021/12/24 15:13:01;;;;;;;;;;;;;;;;;;;;;
2021/12/24 15:15:27;;;;;;;;;;;6.40;99.90;;;;;;4971219;28;19927;-88
2021/12/24 15:24:48;;;;;;;;;;;6.20;99.90;;;;;;4898959;29;20021;-89
2021/12/24 15:27:52;;;;;;;;;;;;;;;;;;;;;
2021/12/24 15:30:21;;;;;;;;;;;6.10;99.90;;;;;;4899881;29;20304;-87
2021/12/24 15:32:50;;;;;;;;;;;6.00;99.90;;;;;;4889855;29;19981;-86
2021/12/24 15:35:58;;;;;;;;;;;;;;;;;;;;;
2021/12/24 15:41:46;;;;;;;;;;;6.10;99.90;;;;;;4943039;28;19927;-86
2021/12/24 15:44:15;;;;;;;;;;;6.00;99.90;;;;;;4965582;28;19933;-86
2021/12/24 15:46:43;;;;;;;;;;;6.00;99.90;;;;;;4968166;28;19933;-86
2021/12/24 15:49:29;;;;;;;;;;;6.00;99.90;;;;;;4938375;28;20090;-88
2021/12/24 15:52:06;;;;;;;;;;;5.90;99.90;;;;;;4942343;28;19926;-91
2021/12/24 15:57:28;;;;;;;;;;;5.90;99.90;;;;;;4942529;28;20021;-89
2021/12/24 16:00:16;;;;;;;;;;;5.90;99.90;;;;;;4940842;28;19930;-89
2021/12/24 16:03:12;;;;;;;;;;;5.80;99.90;;;;;;4949098;28;19981;-89
2021/12/24 16:05:58;;;;;;;;;;;;;;;;;;;;;
2021/12/24 16:08:24;;;;;;;;;;;5.90;99.90;;;;;;4961766;28;20035;-89
2021/12/24 16:10:52;;;;;;;;;;;5.80;99.90;;;;;;4944318;28;19926;-88
2021/12/24 16:13:20;;;;;;;;;;;5.80;99.90;;;;;;4943819;28;19926;-88
2021/12/24 16:15:50;;;;;;;;;;;5.80;99.90;;;;;;4944357;28;19933;-87
2021/12/24 16:18:18;;;;;;;;;;;5.70;99.90;;;;;;4944645;28;20346;-86
2021/12/24 16:20:47;;;;;;;;;;;5.70;99.90;;;;;;4945133;28;20018;-87
2021/12/24 16:23:44;;;;;;;;;;;;;;;;;;;;;
2021/12/24 16:26:50;;;;;;;;;;;5.60;99.90;;;;;;4957123;29;19927;-89
2021/12/24 16:29:17;;;;;;;;;;;5.60;99.90;;;;;;4956277;29;19926;-88
2021/12/24 16:31:53;;;;;;;;;;;5.50;99.90;;;;;;4925212;29;19927;-87
2021/12/24 16:34:24;;;;;;;;;;;5.50;99.90;;;;;;4941489;29;20286;-88
2021/12/24 16:37:09;;;;;;;;;;;5.50;99.90;;;;;;4971916;28;19926;-88
2021/12/24 16:39:56;;;;;;;;;;;5.40;99.90;;;;;;4973012;28;19934;-87
2021/12/24 16:42:25;;;;;;;;;;;5.40;99.90;;;;;;4975875;28;20314;-86
2021/12/24 16:45:21;;;;;;;;;;;;;;;;;;;;;
2021/12/24 16:48:01;;;;;;;;;;;5.30;99.90;;;;;;4957981;28;20358;-88
2021/12/24 16:53:05;;;;;;;;;;;5.10;99.90;;;;;;4973950;28;20382;-88
2021/12/24 16:55:33;;;;;;;;;;;5.10;99.90;;;;;;4943822;28;19933;-86
2021/12/24 16:58:00;;;;;;;;;;;5.10;99.90;;;;;;4939569;28;19937;-86
2021/12/24 17:00:28;;;;;;;;;;;5.10;99.90;;;;;;4957127;28;20311;-86
2021/12/24 17:02:54;;;;;;;;;;;5.10;99.90;;;;;;4940205;28;19965;-86
2021/12/24 17:05:19;;;;;;;;;;;5.10;99.90;;;;;;4939229;28;20394;-86
2021/12/24 17:07:50;;;;;;;;;;;5.00;99.90;;;;;;4972375;28;19981;-87
2021/12/24 17:10:26;;;;;;;;;;;5.00;99.90;;;;;;4946873;28;19940;-91
2021/12/24 17:12:57;;;;;;;;;;;5.00;99.90;;;;;;4942492;28;19930;-89
2021/12/24 17:15:46;;;;;;;;;;;5.10;99.90;;;;;;4941281;28;19926;-92
2021/12/24 17:18:13;;;;;;;;;;;5.10;99.90;;;;;;4950992;28;19926;-86
2021/12/24 17:20:41;;;;;;;;;;;5.10;99.90;;;;;;4932011;28;19934;-86
2021/12/24 17:23:12;;;;;;;;;;;5.10;99.90;;;;;;4958973;28;19973;-87
2021/12/24 17:25:51;;;;;;;;;;;5.00;99.90;;;;;;4944045;28;20038;-86
2021/12/24 17:28:22;;;;;;;;;;;5.00;99.90;;;;;;4940740;28;20429;-86
2021/12/24 17:30:56;;;;;;;;;;;5.00;99.90;;;;;;4934712;28;19926;-87
2021/12/24 17:33:26;;;;;;;;;;;4.90;99.90;;;;;;4959487;28;19984;-87
2021/12/24 17:35:59;;;;;;;;;;;5.00;99.90;;;;;;4956168;28;19973;-87
2021/12/24 17:38:28;;;;;;;;;;;4.90;99.90;;;;;;4942899;28;19930;-87
2021/12/24 17:41:22;;;;;;;;;;;4.90;99.90;;;;;;4942914;28;20025;-87
2021/12/24 17:44:04;;;;;;;;;;;4.80;99.90;;;;;;4971685;28;19926;-87
2021/12/24 17:46:37;;;;;;;;;;;4.80;99.90;;;;;;4974880;28;19933;-88
2021/12/24 17:49:12;;;;;;;;;;;4.70;99.90;;;;;;4943417;28;19927;-88
2021/12/24 17:51:50;;;;;;;;;;;4.60;99.90;;;;;;4941690;28;19926;-89
2021/12/24 17:54:32;;;;;;;;;;;4.60;99.90;;;;;;4958961;28;19976;-91
2021/12/24 17:57:14;;;;;;;;;;;4.50;99.90;;;;;;4945073;28;19926;-90
2021/12/24 18:00:20;;;;;;;;;;;4.40;99.90;;;;;;4960169;28;19926;-89
2021/12/24 18:03:12;;;;;;;;;;;;;;;;;;;;;
2021/12/24 18:05:43;;;;;;;;;;;4.30;99.90;;;;;;4959881;28;19926;-89
2021/12/24 18:08:32;;;;;;;;;;;4.20;99.90;;;;;;4954617;28;19933;-89
2021/12/24 18:11:08;;;;;;;;;;;4.10;99.90;;;;;;4967602;28;19926;-89
2021/12/24 18:13:50;;;;;;;;;;;;;;;;;;;;;
2021/12/24 18:19:53;;;;;;;;;;;3.90;99.90;;;;;;4960429;28;19937;-95
2021/12/24 18:22:26;;;;;;;;;;;3.80;99.90;;;;;;4965297;28;20025;-88
2021/12/24 18:25:15;;;;;;;;;;;;;;;;;;;;;
2021/12/24 18:28:05;;;;;;;;;;;3.60;99.90;;;;;;4969260;28;19985;-88
2021/12/24 18:30:50;;;;;;;;;;;;;;;;;;;;;
2021/12/24 18:33:28;;;;;;;;;;;3.60;99.90;;;;;;4954434;29;19931;-90
2021/12/24 18:36:02;;;;;;;;;;;3.50;99.90;;;;;;4951853;28;19949;-87
2021/12/24 18:38:58;;;;;;;;;;;;;;;;;;;;;
2021/12/24 18:41:29;;;;;;;;;;;3.50;99.90;;;;;;4972727;28;19933;-88
2021/12/24 18:44:23;;;;;;;;;;;3.40;99.90;;;;;;4958494;28;19926;-89
2021/12/24 18:50:01;;;;;;;;;;;3.40;99.90;;;;;;4960445;28;19988;-87
2021/12/24 18:52:39;;;;;;;;;;;3.30;99.90;;;;;;4957930;28;19933;-88
2021/12/24 18:55:39;;;;;;;;;;;3.30;99.90;;;;;;4970519;28;19926;-88
2021/12/24 18:58:11;;;;;;;;;;;3.30;99.90;;;;;;4949191;28;20044;-91
2021/12/24 19:04:18;;;;;;;;;;;;;;;;;;;;;
2021/12/24 19:07:03;;;;;;;;;;;3.30;99.90;;;;;;4955009;29;20025;-91
2021/12/24 19:12:32;;;;;;;;;;;3.20;99.90;;;;;;4939730;29;20386;-92
2021/12/24 19:15:34;;;;;;;;;;;;;;;;;;;;;
2021/12/24 19:18:21;;;;;;;;;;;3.20;99.90;;;;;;4952921;29;19927;-91
2021/12/24 19:20:58;;;;;;;;;;;3.20;99.90;;;;;;4936329;28;19926;-93
2021/12/24 19:27:26;;;;;;;;;;;;;;;;;;;;;
2021/12/24 19:30:40;;;;;;;;;;;;;;;;;;;;;
2021/12/24 19:33:30;;;;;;;;;;;3.00;99.90;;;;;;4972713;28;20450;-94
2021/12/24 19:36:35;;;;;;;;;;;;;;;;;;;;;
2021/12/24 19:39:13;;;;;;;;;;;2.90;99.90;;;;;;4973854;28;19926;-88
2021/12/24 19:42:04;;;;;;;;;;;2.90;99.90;;;;;;4961170;28;19930;-93
2021/12/24 19:45:32;;;;;;;;;;;;;;;;;;;;;
2021/12/24 19:52:03;;;;;;;;;;;2.80;99.90;;;;;;4933879;28;19927;-91
2021/12/24 20:11:44;;;;;;;;;;;2.60;99.90;;;;;;4750691;29;19917;-90
2021/12/24 20:17:39;;;;;;;;;;;2.60;99.90;;;;;;4816170;29;20124;-91
2021/12/24 20:31:09;;;;;;;;;;;;;;;;;;;;;
2021/12/24 20:37:31;;;;;;;;;;;;;;;;;;;;;
2021/12/24 20:50:32;;;;;;;;;;;;;;;;;;;;;